Redbird, Oklahoma
Current Conditions -  °F | °C
As of 11:53 AM on Saturday 20 Dec 2014 (Local Time) from KMKO Reporting Station
Overcast Overcast  
Wind Chill:   Ceiling: 3000
Heat Index:   Visibility: 9mi
Dew Point:   Wind: 5mph
Humidity: 79%   Direction: 180°S
Pressure: 30.26"   Gusts: NA
Location:  35.89°N, 95.59°W
Report Text: KMKO 201753Z AUTO 18004KT 9SM SCT012 OVC030 07/03 A3026 RMK AO2 SLP247 T00670033 10072 20044 58000
Loading
Personal Weather Stations






























Interactive Weather Map New forecast layout! Learn more

10-Day Weather Forecast

Advertisements
Track Severe Weather on mobile